Time;durP1;ratioP1;P1;durP2;ratioP2;P2;SDS_P1;SDS_P2;PMS_P1;PMS_P2;Temp;Humidity;BMP_temperature;BMP_pressure;BME280_temperature;BME280_humidity;BME280_pressure;Samples;Min_cycle;Max_cycle;Signal;HPM_P1;HPM_P2
2023/08/10 09:23:18;;;;;;;5.95;2.42;;;28.60;69.20;;;;;;6251126;22;20024;-81
2023/08/10 09:25:45;;;;;;;5.20;2.00;;;29.00;67.50;;;;;;6278664;22;20004;-81
2023/08/10 09:28:15;;;;;;;4.90;2.45;;;29.10;67.10;;;;;;6277304;22;20045;-81
2023/08/10 09:30:41;;;;;;;4.45;2.33;;;28.70;68.20;;;;;;6278049;22;20053;-82
2023/08/10 09:33:06;;;;;;;6.47;2.65;;;27.90;68.50;;;;;;6250520;22;20008;-81
2023/08/10 09:35:32;;;;;;;4.47;2.10;;;27.90;69.80;;;;;;6276767;22;20000;-81
2023/08/10 09:38:01;;;;;;;3.90;2.20;;;28.00;69.80;;;;;;6278653;22;20003;-80
2023/08/10 09:40:26;;;;;;;4.82;2.55;;;28.30;68.90;;;;;;6279658;22;19996;-81
2023/08/10 09:42:53;;;;;;;4.30;2.30;;;27.80;68.00;;;;;;6250682;22;20057;-79
2023/08/10 09:45:19;;;;;;;4.00;2.20;;;27.50;69.10;;;;;;6279398;22;20018;-82
2023/08/10 09:47:45;;;;;;;5.97;2.20;;;28.10;69.70;;;;;;6276510;22;20075;-81
2023/08/10 09:50:17;;;;;;;4.38;2.15;;;28.90;67.00;;;;;;6250369;22;19999;-81
2023/08/10 09:52:44;;;;;;;4.70;2.60;;;29.20;65.10;;;;;;6276475;22;20657;-80
2023/08/10 09:55:11;;;;;;;4.65;2.35;;;29.10;63.20;;;;;;6277960;22;20297;-81
2023/08/10 09:57:40;;;;;;;5.45;2.22;;;29.30;63.30;;;;;;6277342;22;20265;-81
2023/08/10 10:00:14;;;;;;;5.50;2.05;;;29.40;64.80;;;;;;6277783;22;20294;-81
2023/08/10 10:02:40;;;;;;;4.70;2.30;;;29.50;63.30;;;;;;6277908;22;20003;-82
2023/08/10 10:05:06;;;;;;;3.80;2.00;;;29.00;63.20;;;;;;6278027;22;20025;-81
2023/08/10 10:07:32;;;;;;;4.38;2.03;;;28.60;62.50;;;;;;6277110;22;20019;-81
2023/08/10 10:09:59;;;;;;;4.18;2.22;;;29.20;63.80;;;;;;6278425;22;20002;-81
2023/08/10 10:12:26;;;;;;;4.38;2.13;;;29.70;61.70;;;;;;6253012;22;20054;-81
2023/08/10 10:14:52;;;;;;;5.53;1.90;;;29.30;60.90;;;;;;6253069;22;20015;-80
2023/08/10 10:17:19;;;;;;;4.35;2.10;;;29.20;59.80;;;;;;6279993;22;20004;-80
2023/08/10 10:19:49;;;;;;;4.65;2.20;;;29.10;62.10;;;;;;6280030;22;20031;-81
2023/08/10 10:22:17;;;;;;;4.07;2.40;;;28.90;60.20;;;;;;6277803;22;20073;-81
2023/08/10 10:24:43;;;;;;;5.82;3.03;;;28.90;59.50;;;;;;6279766;22;20011;-81
2023/08/10 10:27:11;;;;;;;4.80;2.60;;;28.90;60.40;;;;;;6280057;22;19996;-81
2023/08/10 10:29:40;;;;;;;4.55;2.40;;;29.20;61.50;;;;;;6280091;22;20313;-81
2023/08/10 10:32:19;;;;;;;4.10;2.20;;;29.10;60.70;;;;;;6279872;22;20004;-81
2023/08/10 10:34:45;;;;;;;3.90;2.08;;;28.70;61.60;;;;;;6253449;22;20000;-81
2023/08/10 10:37:28;;;;;;;5.25;2.30;;;28.90;61.50;;;;;;6279987;22;20007;-81
2023/08/10 10:40:13;;;;;;;4.65;2.15;;;29.30;60.30;;;;;;6281848;22;19999;-80
2023/08/10 10:43:08;;;;;;;3.72;2.00;;;29.00;61.50;;;;;;6281607;22;20042;-81
2023/08/10 10:45:35;;;;;;;4.18;2.20;;;29.00;61.50;;;;;;6281794;22;19996;-81
2023/08/10 10:48:01;;;;;;;3.80;2.05;;;29.40;60.50;;;;;;6281873;22;20118;-81
2023/08/10 10:50:31;;;;;;;4.35;2.45;;;29.90;60.60;;;;;;6279834;22;20475;-81
2023/08/10 10:53:03;;;;;;;3.92;1.90;;;30.10;58.30;;;;;;6281903;22;20004;-81
2023/08/10 10:55:42;;;;;;;4.32;2.38;;;29.90;60.10;;;;;;6281741;22;20000;-82
2023/08/10 10:58:09;;;;;;;4.32;2.25;;;30.50;59.70;;;;;;6281450;22;20004;-81
2023/08/10 11:00:36;;;;;;;4.03;2.00;;;30.60;57.70;;;;;;6281652;22;20365;-80
2023/08/10 11:03:08;;;;;;;5.57;2.25;;;30.00;58.40;;;;;;6279876;22;19999;-81
2023/08/10 11:05:34;;;;;;;4.00;2.20;;;29.60;57.30;;;;;;6273005;22;20011;-80
2023/08/10 11:08:03;;;;;;;4.38;2.33;;;29.10;57.80;;;;;;6274707;22;20015;-80
2023/08/10 11:10:37;;;;;;;4.80;2.55;;;28.80;59.30;;;;;;6277236;22;20031;-80
2023/08/10 11:13:05;;;;;;;;;;;29.00;58.70;;;;;;6278658;22;20650;-80
2023/08/10 11:15:32;;;;;;;4.32;2.13;;;29.30;57.00;;;;;;6276786;22;19910;-81
2023/08/10 11:17:57;;;;;;;4.10;2.38;;;29.20;57.10;;;;;;6276676;22;20007;-81
2023/08/10 11:20:23;;;;;;;4.65;2.75;;;29.10;56.90;;;;;;6275879;22;20361;-80
2023/08/10 11:22:49;;;;;;;4.45;2.40;;;29.00;57.40;;;;;;6277389;22;20007;-81
2023/08/10 11:25:25;;;;;;;4.35;2.28;;;28.80;57.80;;;;;;6274907;22;20011;-81
2023/08/10 11:27:56;;;;;;;4.30;2.53;;;28.70;57.90;;;;;;6251164;22;20385;-81
2023/08/10 11:30:23;;;;;;;6.10;2.45;;;28.90;57.70;;;;;;6280800;22;20423;-81
2023/08/10 11:32:50;;;;;;;6.22;2.70;;;29.20;59.70;;;;;;6281244;22;20318;-81
2023/08/10 11:35:20;;;;;;;5.18;2.60;;;28.80;61.10;;;;;;6280410;22;19999;-81
2023/08/10 11:37:48;;;;;;;4.22;2.38;;;28.50;61.60;;;;;;6280004;22;20000;-80
2023/08/10 11:40:20;;;;;;;4.28;2.10;;;28.40;60.10;;;;;;6253052;22;20320;-79
2023/08/10 11:42:52;;;;;;;5.70;2.40;;;28.00;59.90;;;;;;6280972;22;20032;-79
2023/08/10 11:45:23;;;;;;;3.83;2.35;;;28.10;61.60;;;;;;6281129;22;19995;-79
2023/08/10 11:47:52;;;;;;;5.07;2.35;;;28.30;61.20;;;;;;6281065;22;20000;-79
2023/08/10 11:50:21;;;;;;;4.70;2.40;;;28.40;60.60;;;;;;6279260;22;20088;-80
2023/08/10 11:52:51;;;;;;;5.45;2.70;;;28.20;59.40;;;;;;6253183;22;20049;-80
2023/08/10 11:55:18;;;;;;;4.90;2.50;;;28.30;59.00;;;;;;6254199;22;20076;-80
2023/08/10 11:57:52;;;;;;;6.25;2.60;;;28.40;58.60;;;;;;6281319;22;20007;-81
2023/08/10 12:00:33;;;;;;;4.50;2.72;;;28.10;58.20;;;;;;6279367;22;20004;-81
2023/08/10 12:03:04;;;;;;;4.40;2.70;;;27.30;60.60;;;;;;6278945;22;20003;-81
2023/08/10 12:05:35;;;;;;;6.32;2.90;;;27.10;61.10;;;;;;6279090;22;20035;-81
2023/08/10 12:08:02;;;;;;;5.38;2.50;;;27.10;62.00;;;;;;6252611;22;20070;-81
2023/08/10 12:11:05;;;;;;;4.80;2.70;;;27.40;59.90;;;;;;6280146;22;20000;-81
2023/08/10 12:13:31;;;;;;;6.72;4.97;;;27.40;60.80;;;;;;6280898;22;20000;-81
2023/08/10 12:16:00;;;;;;;4.47;2.70;;;27.80;60.10;;;;;;6280801;22;20038;-81
2023/08/10 12:18:26;;;;;;;6.55;3.10;;;27.70;59.70;;;;;;6280526;22;20242;-81
2023/08/10 12:20:53;;;;;;;4.75;2.63;;;27.80;57.90;;;;;;6279381;22;20042;-81
2023/08/10 12:23:20;;;;;;;4.10;2.50;;;28.00;58.20;;;;;;6253637;22;20015;-80
2023/08/10 12:25:47;;;;;;;4.60;2.60;;;27.70;60.20;;;;;;6280146;22;20025;-81
2023/08/10 12:28:16;;;;;;;5.15;2.80;;;27.90;59.80;;;;;;6280585;22;20294;-81
2023/08/10 12:30:42;;;;;;;4.88;2.40;;;27.90;59.80;;;;;;6278819;22;20000;-81
2023/08/10 12:33:09;;;;;;;4.95;2.72;;;28.20;59.30;;;;;;6278997;22;20069;-80
2023/08/10 12:35:35;;;;;;;4.85;2.60;;;28.70;58.20;;;;;;6279005;22;20000;-81
2023/08/10 12:38:01;;;;;;;4.72;2.70;;;28.50;60.10;;;;;;6253275;22;20019;-81
2023/08/10 12:40:30;;;;;;;5.90;2.80;;;29.00;58.00;;;;;;6280572;22;20046;-81
2023/08/10 12:42:56;;;;;;;8.05;2.78;;;29.70;58.80;;;;;;6251311;22;20944;-80
2023/08/10 12:45:22;;;;;;;5.28;2.47;;;29.60;56.30;;;;;;6248989;22;20030;-81
2023/08/10 12:47:48;;;;;;;4.40;2.50;;;30.00;56.40;;;;;;6276974;22;19995;-81
2023/08/10 12:50:15;;;;;;;4.75;2.55;;;29.90;57.00;;;;;;6276623;22;20014;-80
2023/08/10 12:52:43;;;;;;;5.53;2.83;;;30.30;55.40;;;;;;6249048;22;20387;-80
2023/08/10 12:55:09;;;;;;;3.95;2.30;;;30.30;54.70;;;;;;6275904;22;20027;-81
2023/08/10 12:57:35;;;;;;;5.90;2.40;;;30.20;55.50;;;;;;6276877;22;20062;-81
2023/08/10 13:00:05;;;;;;;4.75;2.50;;;29.50;58.10;;;;;;6276341;22;20007;-80
2023/08/10 13:02:31;;;;;;;5.93;3.05;;;29.60;55.90;;;;;;6276994;22;20007;-81
2023/08/10 13:04:57;;;;;;;4.30;2.78;;;29.70;55.20;;;;;;6276765;22;20042;-80
2023/08/10 13:07:22;;;;;;;4.20;2.42;;;29.40;54.90;;;;;;6275010;22;20006;-80
2023/08/10 13:09:48;;;;;;;4.63;2.85;;;29.50;56.80;;;;;;6276808;22;20008;-80
2023/08/10 13:12:13;;;;;;;4.82;2.30;;;29.70;54.40;;;;;;6274517;22;20000;-80
2023/08/10 13:14:39;;;;;;;4.10;2.58;;;30.40;54.30;;;;;;6248390;22;20380;-79
2023/08/10 13:17:06;;;;;;;5.65;2.70;;;30.80;52.40;;;;;;6275039;22;20297;-80
2023/08/10 13:19:32;;;;;;;4.28;2.50;;;31.10;53.50;;;;;;6275203;22;20003;-80
2023/08/10 13:21:58;;;;;;;4.78;2.65;;;31.20;52.30;;;;;;6274262;22;20011;-80
2023/08/10 13:24:23;;;;;;;4.40;2.40;;;31.20;54.30;;;;;;6276449;22;20028;-80
2023/08/10 13:26:49;;;;;;;4.18;2.20;;;31.90;52.90;;;;;;6275863;22;20023;-80
2023/08/10 13:29:14;;;;;;;5.53;2.33;;;32.90;50.40;;;;;;6275495;22;20008;-80
2023/08/10 13:31:40;;;;;;;4.30;2.30;;;32.90;51.00;;;;;;6275067;22;20133;-79
2023/08/10 13:34:08;;;;;;;4.75;2.28;;;32.50;50.30;;;;;;6276563;22;20000;-79
2023/08/10 13:36:34;;;;;;;5.22;2.60;;;32.30;51.20;;;;;;6274906;22;20030;-80
2023/08/10 13:38:59;;;;;;;4.03;2.20;;;32.10;50.50;;;;;;6276520;22;20007;-80
2023/08/10 13:41:25;;;;;;;4.00;2.10;;;31.80;51.80;;;;;;6276048;22;20099;-81
2023/08/10 13:43:50;;;;;;;4.43;2.40;;;32.20;52.80;;;;;;6275180;22;19996;-81
2023/08/10 13:46:16;;;;;;;8.30;2.50;;;31.60;54.50;;;;;;6275657;22;20350;-81
2023/08/10 13:48:42;;;;;;;4.45;2.30;;;32.10;52.50;;;;;;6273853;22;20004;-82
2023/08/10 13:51:07;;;;;;;3.80;2.03;;;32.50;50.40;;;;;;6274845;22;20365;-80
2023/08/10 13:53:33;;;;;;;4.18;2.05;;;33.00;50.10;;;;;;6248926;22;20006;-81
2023/08/10 13:55:58;;;;;;;6.65;2.40;;;33.50;49.90;;;;;;6274850;22;20000;-80
2023/08/10 13:58:24;;;;;;;4.13;1.88;;;33.50;48.80;;;;;;6275380;22;20012;-81
2023/08/10 14:00:50;;;;;;;4.38;2.00;;;32.70;50.20;;;;;;6276152;22;20008;-81
2023/08/10 14:03:15;;;;;;;4.97;2.10;;;32.80;51.10;;;;;;6275484;22;20026;-80
2023/08/10 14:05:41;;;;;;;4.00;2.10;;;33.50;50.80;;;;;;6274145;22;20257;-81
2023/08/10 14:08:06;;;;;;;6.22;2.15;;;33.90;50.10;;;;;;6248594;22;20035;-81
2023/08/10 14:10:32;;;;;;;4.32;2.10;;;34.40;49.90;;;;;;6277172;22;20102;-81
2023/08/10 14:12:57;;;;;;;4.53;2.20;;;34.00;49.30;;;;;;6275577;22;20008;-80
2023/08/10 14:15:23;;;;;;;5.40;2.60;;;33.50;51.10;;;;;;6276882;22;20745;-81
2023/08/10 14:17:49;;;;;;;4.95;2.10;;;33.30;51.40;;;;;;6278286;22;20265;-81
2023/08/10 14:20:15;;;;;;;4.18;2.10;;;33.50;51.10;;;;;;6250211;22;20049;-81
2023/08/10 14:22:40;;;;;;;4.32;2.28;;;33.70;49.80;;;;;;6249441;22;20051;-81
2023/08/10 14:25:06;;;;;;;4.20;2.05;;;34.10;51.60;;;;;;6277487;22;20004;-81
2023/08/10 14:27:32;;;;;;;5.85;2.00;;;33.80;50.50;;;;;;6275974;22;20034;-81
2023/08/10 14:29:58;;;;;;;4.55;2.10;;;34.10;49.70;;;;;;6248209;22;20401;-81
2023/08/10 14:32:23;;;;;;;4.50;2.30;;;34.10;49.70;;;;;;6277064;22;20007;-80
2023/08/10 14:34:54;;;;;;;3.70;1.90;;;32.90;50.10;;;;;;6277855;22;20019;-80
2023/08/10 14:37:20;;;;;;;3.17;1.90;;;33.40;50.70;;;;;;6276648;22;20004;-80
2023/08/10 14:39:45;;;;;;;4.47;1.88;;;33.90;50.70;;;;;;6278028;22;20004;-80
2023/08/10 14:42:11;;;;;;;4.30;2.10;;;33.70;50.40;;;;;;6276558;22;20031;-80
2023/08/10 14:44:36;;;;;;;4.47;2.20;;;33.80;50.90;;;;;;6277424;22;20010;-81
2023/08/10 14:47:02;;;;;;;3.92;2.08;;;33.90;50.90;;;;;;6277177;22;20004;-81
2023/08/10 14:49:29;;;;;;;4.78;1.85;;;33.80;51.10;;;;;;6276824;22;20457;-81
2023/08/10 14:51:55;;;;;;;4.70;2.40;;;34.30;50.10;;;;;;6275243;22;20007;-81
2023/08/10 14:54:21;;;;;;;4.10;2.00;;;33.60;50.40;;;;;;6277790;22;20348;-81
2023/08/10 14:56:51;;;;;;;4.38;2.25;;;33.80;51.20;;;;;;6276350;22;20010;-81
2023/08/10 14:59:18;;;;;;;4.10;2.25;;;33.20;51.30;;;;;;6277994;22;20057;-81
2023/08/10 15:01:44;;;;;;;4.68;2.40;;;32.60;54.70;;;;;;6248394;22;20094;-81
2023/08/10 15:04:10;;;;;;;4.78;2.35;;;33.50;52.30;;;;;;6277657;22;20008;-81
2023/08/10 15:06:35;;;;;;;3.55;1.83;;;33.90;51.50;;;;;;6273854;22;20004;-81
2023/08/10 15:09:01;;;;;;;5.38;2.30;;;34.30;51.40;;;;;;6276404;22;20269;-81
2023/08/10 15:11:27;;;;;;;6.18;2.50;;;33.90;50.50;;;;;;6276911;22;20269;-81
2023/08/10 15:13:53;;;;;;;5.72;2.50;;;33.70;51.50;;;;;;6274782;22;20000;-81
2023/08/10 15:16:19;;;;;;;3.90;2.10;;;34.60;51.50;;;;;;6249129;22;20008;-81
2023/08/10 15:18:46;;;;;;;4.15;1.98;;;35.10;50.30;;;;;;6276704;22;20080;-80
2023/08/10 15:21:12;;;;;;;4.93;1.85;;;34.20;50.30;;;;;;6273885;22;20591;-81
2023/08/10 15:23:38;;;;;;;5.50;2.30;;;34.10;51.60;;;;;;6249690;22;20401;-81
2023/08/10 15:26:04;;;;;;;3.80;2.20;;;33.80;51.40;;;;;;6275420;22;20000;-81
2023/08/10 15:28:32;;;;;;;4.40;2.33;;;33.80;51.70;;;;;;6275245;22;20053;-81
2023/08/10 15:30:58;;;;;;;4.30;1.95;;;33.70;51.90;;;;;;6273454;22;20015;-81
2023/08/10 15:33:24;;;;;;;5.50;1.92;;;34.30;51.60;;;;;;6274931;22;20000;-81
2023/08/10 15:35:49;;;;;;;4.53;1.92;;;35.10;50.80;;;;;;6274515;22;20004;-81
2023/08/10 15:38:15;;;;;;;5.22;2.08;;;35.60;48.70;;;;;;6276180;22;20000;-81
2023/08/10 15:40:42;;;;;;;3.50;1.80;;;36.00;48.90;;;;;;6276275;22;19999;-82
2023/08/10 15:43:07;;;;;;;7.40;3.55;;;36.40;48.60;;;;;;6276456;22;20007;-82
2023/08/10 15:45:35;;;;;;;4.38;2.28;;;36.50;48.70;;;;;;6275464;22;20007;-81
2023/08/10 15:48:00;;;;;;;4.03;2.22;;;35.30;49.60;;;;;;6276526;22;20000;-82
2023/08/10 15:50:27;;;;;;;5.55;2.17;;;34.00;50.60;;;;;;6276108;22;20321;-82
2023/08/10 15:52:52;;;;;;;4.97;2.13;;;34.30;50.50;;;;;;6250783;22;20011;-82
2023/08/10 15:55:18;;;;;;;4.05;2.33;;;34.70;51.70;;;;;;6275550;22;20026;-81
2023/08/10 15:57:44;;;;;;;4.05;2.03;;;34.80;50.80;;;;;;6276995;22;20050;-82
2023/08/10 16:00:12;;;;;;;4.57;2.42;;;33.70;51.70;;;;;;6277101;22;20011;-82
2023/08/10 16:02:40;;;;;;;5.47;2.15;;;33.20;53.20;;;;;;6275629;22;20577;-82
2023/08/10 16:05:09;;;;;;;4.82;2.20;;;33.60;52.40;;;;;;6276334;22;20000;-82
2023/08/10 16:07:36;;;;;;;4.15;2.38;;;34.20;51.30;;;;;;6247822;22;20008;-82
2023/08/10 16:10:05;;;;;;;4.13;2.25;;;34.20;51.40;;;;;;6273710;22;20026;-82
2023/08/10 16:12:31;;;;;;;6.72;1.92;;;34.90;50.60;;;;;;6278666;22;20007;-81
2023/08/10 16:14:57;;;;;;;9.18;2.63;;;35.40;50.10;;;;;;6279812;22;20007;-82
2023/08/10 16:17:22;;;;;;;5.00;2.58;;;34.60;51.20;;;;;;6279691;22;19999;-82
2023/08/10 16:19:48;;;;;;;4.57;2.33;;;34.20;53.10;;;;;;6280437;22;20095;-82
2023/08/10 16:22:13;;;;;;;4.72;2.20;;;34.00;51.70;;;;;;6279320;22;20008;-82
2023/08/10 16:24:39;;;;;;;5.03;2.50;;;33.70;53.70;;;;;;6279887;22;20007;-82
2023/08/10 16:27:05;;;;;;;6.10;2.35;;;34.40;52.60;;;;;;6280172;22;20026;-82
2023/08/10 16:29:31;;;;;;;5.70;2.70;;;34.40;51.70;;;;;;6279455;22;20071;-81
2023/08/10 16:31:57;;;;;;;3.92;2.10;;;33.90;52.60;;;;;;6279676;22;19999;-82
2023/08/10 16:34:23;;;;;;;6.30;2.88;;;34.00;52.30;;;;;;6280342;22;20000;-82
2023/08/10 16:36:48;;;;;;;9.10;7.07;;;34.10;51.30;;;;;;6251757;22;20031;-82
2023/08/10 16:39:14;;;;;;;5.22;2.70;;;34.40;50.90;;;;;;6253111;22;20019;-82
2023/08/10 16:41:40;;;;;;;6.18;3.13;;;34.30;50.90;;;;;;6280200;22;20003;-82
2023/08/10 16:44:06;;;;;;;5.60;2.30;;;34.60;51.60;;;;;;6279872;22;20022;-82
2023/08/10 16:46:32;;;;;;;5.82;3.13;;;34.90;50.20;;;;;;6273554;22;20065;-82
2023/08/10 16:48:58;;;;;;;4.97;3.08;;;34.50;51.50;;;;;;6248035;22;20011;-82
2023/08/10 16:51:24;;;;;;;4.80;2.83;;;34.60;52.30;;;;;;6273191;22;20102;-82
2023/08/10 16:53:49;;;;;;;4.95;2.40;;;34.00;52.20;;;;;;6273580;22;20007;-82
2023/08/10 16:56:15;;;;;;;4.47;2.17;;;33.70;53.00;;;;;;6276353;22;20054;-82
2023/08/10 16:58:41;;;;;;;4.57;2.30;;;33.70;53.20;;;;;;6272645;22;20035;-82
2023/08/10 17:01:09;;;;;;;4.97;2.50;;;33.20;54.20;;;;;;6278774;22;20006;-83
2023/08/10 17:03:35;;;;;;;6.60;2.40;;;33.60;55.00;;;;;;6252739;22;20003;-81
2023/08/10 17:06:00;;;;;;;5.85;2.40;;;33.60;53.60;;;;;;6277811;22;20003;-81
2023/08/10 17:08:26;;;;;;;4.28;2.03;;;32.40;55.70;;;;;;6279481;22;20022;-81
2023/08/10 17:10:51;;;;;;;5.55;2.40;;;32.40;56.00;;;;;;6252670;22;20046;-81
2023/08/10 17:13:17;;;;;;;4.07;2.28;;;32.80;55.50;;;;;;6278957;22;20057;-82
2023/08/10 17:15:43;;;;;;;4.28;2.40;;;33.20;54.60;;;;;;6279738;22;20006;-81
2023/08/10 17:18:08;;;;;;;3.72;2.00;;;32.90;54.50;;;;;;6252742;22;20031;-81
2023/08/10 17:20:34;;;;;;;4.40;2.03;;;32.70;55.50;;;;;;6278435;22;20035;-81
2023/08/10 17:23:00;;;;;;;6.28;2.72;;;32.70;55.60;;;;;;6279454;22;20270;-81
2023/08/10 17:25:25;;;;;;;3.92;1.98;;;33.10;55.40;;;;;;6279779;22;20011;-84
2023/08/10 17:27:51;;;;;;;5.90;2.67;;;33.20;54.90;;;;;;6252168;22;20090;-77
2023/08/10 17:30:16;;;;;;;4.68;2.35;;;32.50;57.00;;;;;;6279638;22;20007;-83
2023/08/10 17:32:42;;;;;;;4.80;2.25;;;31.70;59.50;;;;;;6279432;22;20004;-84
2023/08/10 17:35:08;;;;;;;3.65;1.95;;;31.00;59.40;;;;;;6279778;22;20430;-82
2023/08/10 17:37:33;;;;;;;4.45;2.50;;;31.20;60.10;;;;;;6277298;22;20008;-82
2023/08/10 17:40:00;;;;;;;6.60;2.30;;;31.00;58.80;;;;;;6279973;22;20015;-84
2023/08/10 17:42:26;;;;;;;4.00;2.20;;;30.70;59.80;;;;;;6279580;22;20320;-83
2023/08/10 17:44:54;;;;;;;4.60;2.40;;;30.40;59.60;;;;;;6279562;22;20030;-83
2023/08/10 17:47:20;;;;;;;4.15;2.40;;;30.30;61.40;;;;;;6280314;22;20003;-82
2023/08/10 17:49:46;;;;;;;5.45;2.28;;;30.40;61.60;;;;;;6276201;22;20242;-82
2023/08/10 17:52:13;;;;;;;5.30;2.55;;;30.60;61.90;;;;;;6277171;22;20007;-82
2023/08/10 17:54:39;;;;;;;4.95;2.20;;;30.70;60.30;;;;;;6252296;22;20091;-82
2023/08/10 17:57:06;;;;;;;4.75;2.80;;;30.40;60.40;;;;;;6277911;22;20059;-82
2023/08/10 17:59:33;;;;;;;5.13;2.30;;;29.80;60.20;;;;;;6278318;22;20026;-83
2023/08/10 18:01:59;;;;;;;4.65;2.75;;;28.20;63.80;;;;;;6279046;22;20007;-81
2023/08/10 18:04:27;;;;;;;4.22;2.42;;;27.60;65.20;;;;;;6279386;22;20026;-81
2023/08/10 18:06:52;;;;;;;7.28;2.80;;;27.50;66.40;;;;;;6278065;22;20062;-81
2023/08/10 18:09:19;;;;;;;8.27;2.70;;;27.20;66.10;;;;;;6252938;22;20019;-81
2023/08/10 18:11:45;;;;;;;5.28;2.70;;;26.40;67.60;;;;;;6279572;22;20034;-81
2023/08/10 18:14:10;;;;;;;5.32;2.63;;;25.60;70.40;;;;;;6278118;22;20365;-81
2023/08/10 18:16:36;;;;;;;5.93;2.67;;;25.90;70.60;;;;;;6279641;22;20050;-80
2023/08/10 18:19:02;;;;;;;6.35;2.60;;;25.80;69.80;;;;;;6278744;22;20010;-81
2023/08/10 18:21:27;;;;;;;6.25;2.90;;;25.50;70.20;;;;;;6278497;22;20257;-81
2023/08/10 18:23:53;;;;;;;4.55;2.50;;;24.90;71.20;;;;;;6279900;22;20020;-81
2023/08/10 18:26:19;;;;;;;7.00;3.40;;;24.50;72.70;;;;;;6280060;22;20000;-81
2023/08/10 18:28:44;;;;;;;6.43;3.10;;;23.90;73.40;;;;;;6278989;22;20423;-81
2023/08/10 18:31:10;;;;;;;7.25;3.05;;;23.40;74.60;;;;;;6279675;22;20059;-81
2023/08/10 18:33:35;;;;;;;5.72;3.10;;;23.10;75.40;;;;;;6279239;22;20290;-80
2023/08/10 18:36:05;;;;;;;5.85;3.00;;;22.50;76.40;;;;;;6277002;22;20010;-81
2023/08/10 18:38:31;;;;;;;10.02;3.40;;;22.10;78.60;;;;;;6279308;22;20126;-81
2023/08/10 18:40:57;;;;;;;8.00;3.30;;;21.90;77.80;;;;;;6279618;22;20095;-82
2023/08/10 18:43:22;;;;;;;6.03;2.92;;;21.70;79.40;;;;;;6279621;22;20034;-82
2023/08/10 18:45:48;;;;;;;7.05;3.40;;;21.50;79.10;;;;;;6279200;22;19999;-81
2023/08/10 18:48:14;;;;;;;5.50;3.17;;;21.30;78.70;;;;;;6279113;22;19995;-81
2023/08/10 18:50:40;;;;;;;7.50;3.15;;;21.20;79.60;;;;;;6250051;22;20073;-81
2023/08/10 18:53:06;;;;;;;6.20;3.15;;;21.00;80.70;;;;;;6277675;22;20027;-81
2023/08/10 18:55:31;;;;;;;6.40;2.70;;;20.90;80.20;;;;;;6278371;22;20078;-80
2023/08/10 18:57:57;;;;;;;6.70;3.42;;;20.80;80.80;;;;;;6280352;22;20007;-81
2023/08/10 19:00:22;;;;;;;6.20;3.03;;;20.70;80.60;;;;;;6254327;22;20361;-81
2023/08/10 19:02:48;;;;;;;7.03;3.30;;;20.60;85.40;;;;;;6281064;22;20421;-81
2023/08/10 19:05:14;;;;;;;4.57;2.60;;;20.50;86.00;;;;;;6280225;22;20007;-80
2023/08/10 19:07:39;;;;;;;7.28;3.30;;;20.20;84.00;;;;;;6280845;22;20006;-81
2023/08/10 19:10:06;;;;;;;6.03;3.25;;;20.00;82.80;;;;;;6280455;22;20000;-80
2023/08/10 19:12:33;;;;;;;6.22;2.90;;;19.90;83.80;;;;;;6280660;22;20004;-80
2023/08/10 19:14:59;;;;;;;5.90;2.85;;;19.90;85.20;;;;;;6280416;22;20011;-80
2023/08/10 19:17:25;;;;;;;7.07;3.22;;;19.80;85.10;;;;;;6253846;22;20011;-80
2023/08/10 19:19:50;;;;;;;6.93;2.95;;;19.60;85.00;;;;;;6280330;22;20003;-80
2023/08/10 19:22:16;;;;;;;5.50;3.20;;;19.50;84.60;;;;;;6252314;22;20027;-80
2023/08/10 19:24:42;;;;;;;6.47;2.92;;;19.40;85.20;;;;;;6279495;22;20000;-80
2023/08/10 19:27:08;;;;;;;6.70;3.13;;;19.30;87.90;;;;;;6278475;22;19996;-80
2023/08/10 19:29:35;;;;;;;6.03;2.90;;;19.20;90.00;;;;;;6279675;22;20361;-80
2023/08/10 19:32:01;;;;;;;5.68;3.17;;;19.10;90.30;;;;;;6280581;22;20362;-80
2023/08/10 19:34:27;;;;;;;6.10;3.10;;;18.90;90.80;;;;;;6280269;22;20269;-80
2023/08/10 19:36:53;;;;;;;6.05;3.78;;;18.60;91.70;;;;;;6277377;22;20000;-80
2023/08/10 19:39:19;;;;;;;7.70;3.15;;;18.50;91.90;;;;;;6279813;22;20007;-79
2023/08/10 19:41:44;;;;;;;7.70;4.07;;;18.40;92.70;;;;;;6278493;22;20312;-80
2023/08/10 19:44:10;;;;;;;8.07;3.60;;;18.30;93.80;;;;;;6254323;22;20054;-80
2023/08/10 19:46:36;;;;;;;5.80;3.55;;;18.10;94.10;;;;;;6281135;22;20022;-80
2023/08/10 19:49:03;;;;;;;6.15;3.45;;;18.00;93.70;;;;;;6281392;22;20353;-80
2023/08/10 19:51:29;;;;;;;6.32;3.22;;;17.80;94.00;;;;;;6279523;22;20004;-80
2023/08/10 19:53:55;;;;;;;6.57;3.13;;;17.70;94.40;;;;;;6254017;22;20018;-81
2023/08/10 19:56:20;;;;;;;6.88;3.47;;;17.60;94.40;;;;;;6281039;22;20008;-79
2023/08/10 19:58:46;;;;;;;8.57;3.92;;;17.60;94.50;;;;;;6280866;22;20004;-80
2023/08/10 20:01:15;;;;;;;7.70;3.30;;;17.60;94.40;;;;;;6280941;22;20000;-81
2023/08/10 20:03:40;;;;;;;5.65;3.50;;;17.50;94.70;;;;;;6281372;22;20361;-82
2023/08/10 20:06:06;;;;;;;5.38;3.35;;;17.40;95.00;;;;;;6279342;22;20027;-80
2023/08/10 20:08:32;;;;;;;6.30;3.00;;;17.30;95.20;;;;;;6253810;22;20000;-80
2023/08/10 20:10:58;;;;;;;7.45;3.72;;;17.20;95.30;;;;;;6280818;22;20003;-80
2023/08/10 20:13:24;;;;;;;6.13;3.60;;;17.20;95.10;;;;;;6280809;22;20035;-81
2023/08/10 20:15:50;;;;;;;6.25;3.92;;;17.10;95.40;;;;;;6280884;22;20007;-80
2023/08/10 20:18:17;;;;;;;6.43;3.58;;;17.10;95.90;;;;;;6280319;22;20027;-80
2023/08/10 20:20:44;;;;;;;6.28;3.40;;;16.90;96.30;;;;;;6278575;22;20003;-80
2023/08/10 20:23:11;;;;;;;6.53;3.72;;;16.90;96.40;;;;;;6278659;22;20377;-79
2023/08/10 20:25:38;;;;;;;7.70;3.60;;;16.80;96.20;;;;;;6252880;22;20046;-78
2023/08/10 20:28:04;;;;;;;6.07;3.33;;;16.80;96.40;;;;;;6279764;22;19999;-78
2023/08/10 20:30:31;;;;;;;6.50;3.65;;;16.80;96.50;;;;;;6280195;22;20049;-78
2023/08/10 20:32:56;;;;;;;8.30;3.75;;;16.70;96.70;;;;;;6253946;22;20004;-79
2023/08/10 20:35:22;;;;;;;8.32;3.63;;;16.70;96.80;;;;;;6278071;22;20262;-80
2023/08/10 20:37:48;;;;;;;6.00;3.38;;;16.60;97.00;;;;;;6279789;22;20007;-80
2023/08/10 20:40:13;;;;;;;5.20;3.25;;;16.50;96.90;;;;;;6253329;22;20082;-80
2023/08/10 20:42:39;;;;;;;6.97;3.42;;;16.50;97.20;;;;;;6279952;22;20011;-80
2023/08/10 20:45:05;;;;;;;6.55;3.40;;;16.40;97.30;;;;;;6279939;22;20015;-81
2023/08/10 20:47:33;;;;;;;5.63;3.63;;;16.30;97.40;;;;;;6280572;22;20004;-80
2023/08/10 20:49:59;;;;;;;6.78;3.50;;;16.20;97.60;;;;;;6280491;22;20578;-80
2023/08/10 20:52:25;;;;;;;5.90;3.35;;;16.10;97.50;;;;;;6252238;22;20047;-80
2023/08/10 20:54:51;;;;;;;9.05;3.50;;;16.10;97.50;;;;;;6280389;22;19999;-80
2023/08/10 20:57:17;;;;;;;6.78;3.58;;;16.20;97.40;;;;;;6280179;22;20031;-80
2023/08/10 20:59:42;;;;;;;6.57;3.65;;;16.20;97.40;;;;;;6280381;22;20278;-80
2023/08/10 21:02:08;;;;;;;7.97;3.78;;;16.10;97.60;;;;;;6253581;22;20000;-80
2023/08/10 21:04:35;;;;;;;5.53;3.25;;;16.00;97.80;;;;;;6280517;22;20006;-80
2023/08/10 21:07:01;;;;;;;5.90;2.78;;;16.00;97.50;;;;;;6278549;22;20021;-80
2023/08/10 21:09:26;;;;;;;6.97;3.40;;;16.00;97.50;;;;;;6279420;22;20074;-80
2023/08/10 21:11:52;;;;;;;8.10;3.30;;;16.00;97.60;;;;;;6279888;22;20078;-80
2023/08/10 21:14:18;;;;;;;6.10;3.13;;;16.00;97.40;;;;;;6278882;22;20000;-80
2023/08/10 21:16:43;;;;;;;5.72;3.40;;;16.00;97.80;;;;;;6277250;22;20007;-80
2023/08/10 21:19:09;;;;;;;7.07;4.00;;;15.90;97.80;;;;;;6278245;22;20007;-80
2023/08/10 21:21:35;;;;;;;6.55;3.58;;;15.80;97.90;;;;;;6251315;22;20424;-80
2023/08/10 21:24:01;;;;;;;5.18;3.20;;;15.60;98.00;;;;;;6251507;22;20120;-80
2023/08/10 21:26:26;;;;;;;6.13;3.60;;;15.60;98.00;;;;;;6277231;22;20003;-80
2023/08/10 21:28:52;;;;;;;5.68;3.25;;;15.70;98.00;;;;;;6278650;22;20003;-80
2023/08/10 21:31:18;;;;;;;6.65;3.60;;;15.60;98.00;;;;;;6278052;22;20000;-80
2023/08/10 21:33:43;;;;;;;6.22;3.20;;;15.60;98.00;;;;;;6279466;22;20171;-80
2023/08/10 21:36:09;;;;;;;5.20;3.10;;;15.50;98.00;;;;;;6276909;22;20018;-80
2023/08/10 21:38:35;;;;;;;6.30;3.15;;;15.40;98.00;;;;;;6279157;22;20007;-80
2023/08/10 21:41:00;;;;;;;6.95;3.72;;;15.40;98.00;;;;;;6252492;22;20426;-80
2023/08/10 21:43:26;;;;;;;5.50;3.13;;;15.40;98.00;;;;;;6279139;22;20042;-80
2023/08/10 21:45:52;;;;;;;6.22;3.05;;;15.40;98.00;;;;;;6277934;22;20380;-80
2023/08/10 21:48:17;;;;;;;7.15;3.50;;;15.40;98.00;;;;;;6278840;22;20088;-80
2023/08/10 21:50:43;;;;;;;6.75;3.60;;;15.40;98.00;;;;;;6275871;22;20000;-79
2023/08/10 21:53:08;;;;;;;5.57;3.38;;;15.50;98.00;;;;;;6277421;22;20007;-79
2023/08/10 21:55:34;;;;;;;5.32;3.28;;;15.40;98.00;;;;;;6278226;22;20003;-79
2023/08/10 21:58:00;;;;;;;7.32;3.58;;;15.40;98.00;;;;;;6278496;22;20000;-81
2023/08/10 22:00:25;;;;;;;8.30;3.58;;;15.40;98.00;;;;;;6278285;22;20004;-79
2023/08/10 22:02:51;;;;;;;7.18;4.00;;;15.40;98.00;;;;;;6278493;22;20035;-79
2023/08/10 22:05:17;;;;;;;5.82;3.60;;;15.40;97.90;;;;;;6248158;22;20349;-79
2023/08/10 22:07:43;;;;;;;6.45;3.38;;;15.40;98.00;;;;;;6249620;22;20090;-79